Detall de PIREP

Printer-friendly versionPDF version

[2011/04/08 15:49:00]
Flight IATA:CT1021
Pilot Number:042
Company ICAO:CAT
Aircraft Type:B738/F
PAX:0
Departing Airport: KEWR
Destination Airport: LPAZ
Alternate Airport:LPLA
Online: VATSIM
Route:DIXIE V276 MANTA N15B KENDA/N0410F350 N15B JOBOC/M080F370 4165N 4260N 4250N 4140N KOKER FRS VFL
Flight Level:F370
No Slew and time accel
No pause
Crash detect
Detect pilot in Cockpit between each 30 and 45 minutes
15:49 Zero fuel Weight: 118700 Lbs, Fuel Weight: 45945 Lbs
15:49 VATSIM:KEWR 081451Z 05006KT 10SM FEW120 BKN140 OVC200 10/M01 A3023 RMK AO2 SLP235 T01001011 58006
15:49 VATSIM:LPAZ 081530Z 28014KT 9999 FEW015 FEW020TCU 17/13 Q1014
15:49 VOICE CATALONIAN/BOEING TRANSPORT
15:50 Parking Brakes off
15:54 Take-off
15:54 Take off Weight: 163810 Lbs
15:54 Wind: 062 @ 005 Knots Heading: 026
15:54 POS N40 41 47 W074 09 56
15:54 Gear Up: 184 Knots
15:54 Flaps:4at 184 Knots
15:54 Flaps:3 at 179 Knots
15:55 Flaps:2 at 154 Knots
15:56 Flaps:1 at 203 Knots
15:57 Flaps:0 at 229 Knots
16:09 Wind:287@064 Knots Heading: 123 Ground Speed: 464 Knots Altitude 22204 ft
16:22 TOC
16:22 Fuel Weight: 39921 Lb
16:24 Wind:295@094 Knots Heading: 090 Ground Speed: 532 Knots Altitude 37316 ft
16:39 Wind:298@087 Knots Heading: 066 Ground Speed: 504 Knots Altitude 37322 ft
16:54 Wind:298@083 Knots Heading: 050 Ground Speed: 482 Knots Altitude 37312 ft
17:09 Wind:297@077 Knots Heading: 067 Ground Speed: 496 Knots Altitude 37260 ft
17:24 Wind:296@072 Knots Heading: 069 Ground Speed: 491 Knots Altitude 37175 ft
17:39 Wind:286@060 Knots Heading: 085 Ground Speed: 497 Knots Altitude 37145 ft
17:54 Wind:283@058 Knots Heading: 088 Ground Speed: 495 Knots Altitude 37103 ft
18:09 Wind:276@051 Knots Heading: 091 Ground Speed: 487 Knots Altitude 37070 ft
18:24 Wind:266@054 Knots Heading: 094 Ground Speed: 490 Knots Altitude 37053 ft
18:39 Wind:248@050 Knots Heading: 098 Ground Speed: 480 Knots Altitude 36984 ft
18:54 Wind:248@050 Knots Heading: 100 Ground Speed: 480 Knots Altitude 36961 ft
19:09 Wind:248@049 Knots Heading: 102 Ground Speed: 484 Knots Altitude 36984 ft
19:24 Wind:224@050 Knots Heading: 106 Ground Speed: 474 Knots Altitude 36994 ft
19:39 Wind:224@049 Knots Heading: 108 Ground Speed: 475 Knots Altitude 36984 ft
19:54 Wind:240@044 Knots Heading: 108 Ground Speed: 484 Knots Altitude 36971 ft
20:09 Wind:238@053 Knots Heading: 107 Ground Speed: 487 Knots Altitude 36935 ft
20:24 Wind:244@052 Knots Heading: 120 Ground Speed: 483 Knots Altitude 37057 ft
20:38 TOD
20:38 Fuel Weight: 17291 Lb
20:39 Wind:262@045 Knots Heading: 109 Ground Speed: 465 Knots Altitude 35685 ft
20:54 Wind:263@031 Knots Heading: 135 Ground Speed: 303 Knots Altitude 12926 ft
20:55 Flaps:1 at 259 Knots
20:55 Flaps:0 at 252 Knots
20:57 Flaps:1 at 171 Knots
21:07 Flaps:2 at 164 Knots
21:07 Flaps:3 at 164 Knots
21:09 Wind:279@015 Knots Heading: 179 Ground Speed: 168 Knots Altitude 2979 ft
21:10 Flaps:4 at 160 Knots
21:10 Flaps:5 at 159 Knots
21:21 Gear Down: 159 Knots
21:22 Flaps:6 at 157 Knots
21:22 Flaps:7 at 157 Knots
21:23 TouchDown:Rate -63 ft/min Speed: 137 Knots
21:23 VATSIM:LPAZ 082100Z 28014KT 9999 FEW014 15/10 Q1019
21:23 Land
21:23 Wind:292@014 Knots
21:23 Heading: 173
21:23 Flight Duration: 05:29
21:23 Landing Weight: 133043 Lbs
21:23 POS N36 58 14 W025 10 13
21:26 Parking brakes on
21:26 Block to Block Duration: 05:36
21:26 Final Fuel: 14120 Lbls
21:26 Spent Fuel: 31825 Lbls
21:26 Flight Length: 2247 NM
21:26 TODLand Length: 190 NM

Exportar CSV

Powered by Drupal - Modified by Danger4k